Time;durP1;ratioP1;P1;durP2;ratioP2;P2;SDS_P1;SDS_P2;PMS_P1;PMS_P2;Temp;Humidity;BMP_temperature;BMP_pressure;BME280_temperature;BME280_humidity;BME280_pressure;Samples;Min_cycle;Max_cycle;Signal;HPM_P1;HPM_P2
2022/08/04 00:00:43;;;;;;;;;;;;;;;21.36;100.00;101303.53;5031545;28;19913;-58
2022/08/04 00:03:15;;;;;;;;;;;;;;;21.38;100.00;101291.66;5042865;28;19963;-56
2022/08/04 00:06:01;;;;;;;;;;;;;;;21.39;100.00;101295.19;5047343;28;19987;-57
2022/08/04 00:08:29;;;;;;;;;;;;;;;21.36;100.00;101299.00;5054607;28;19913;-56
2022/08/04 00:10:57;;;;;;;;;;;;;;;21.34;100.00;101306.34;5055298;28;19912;-57
2022/08/04 00:13:26;;;;;;;;;;;;;;;21.34;100.00;101305.50;5035888;28;19917;-56
2022/08/04 00:15:55;;;;;;;;;;;;;;;21.37;100.00;101291.75;5035234;28;19917;-56
2022/08/04 00:18:25;;;;;;;;;;;;;;;21.39;100.00;101292.50;5034985;28;19964;-56
2022/08/04 00:20:56;;;;;;;;;;;;;;;21.40;100.00;101288.81;5035184;28;19913;-56
2022/08/04 00:23:23;;;;;;;;;;;;;;;21.40;100.00;101286.97;5040797;28;19948;-57
2022/08/04 00:25:48;;;;;;;;;;;;;;;21.36;100.00;101287.38;5035781;28;20686;-57
2022/08/04 00:28:14;;;;;;;;;;;;;;;21.33;100.00;101295.69;5054821;28;19924;-56
2022/08/04 00:30:40;;;;;;;;;;;;;;;21.33;100.00;101284.91;5054766;28;19917;-57
2022/08/04 00:33:06;;;;;;;;;;;;;;;21.37;100.00;101281.84;5054195;28;19959;-56
2022/08/04 00:35:32;;;;;;;;;;;;;;;21.38;100.00;101283.56;5034727;28;20361;-56
2022/08/04 00:37:58;;;;;;;;;;;;;;;21.41;100.00;101282.44;5054789;28;19920;-55
2022/08/04 00:40:30;;;;;;;;;;;;;;;21.42;100.00;101282.31;5036902;28;19936;-56
2022/08/04 00:43:14;;;;;;;;;;;;;;;21.47;100.00;101281.94;5054448;28;19916;-55
2022/08/04 00:45:51;;;;;;;;;;;;;;;21.46;100.00;101280.22;5052568;28;20011;-56
2022/08/04 00:48:16;;;;;;;;;;;;;;;21.40;100.00;101283.44;5054727;28;19913;-56
2022/08/04 00:50:41;;;;;;;;;;;;;;;21.35;100.00;101281.13;5054463;28;19919;-56
2022/08/04 00:53:18;;;;;;;;;;;;;;;21.29;100.00;101292.41;5054108;28;20380;-56
2022/08/04 00:56:04;;;;;;;;;;;;;;;21.26;100.00;101285.44;5052280;28;19917;-55
2022/08/04 00:58:48;;;;;;;;;;;;;;;21.27;100.00;101279.06;5053978;28;19929;-56
2022/08/04 01:01:25;;;;;;;;;;;;;;;21.29;100.00;101278.94;5054123;28;19920;-56
2022/08/04 01:04:02;;;;;;;;;;;;;;;21.28;100.00;101280.78;5053776;28;19917;-56
2022/08/04 01:06:42;;;;;;;;;;;;;;;21.27;100.00;101276.38;5026940;28;19921;-56
2022/08/04 01:09:17;;;;;;;;;;;;;;;21.22;100.00;101277.75;5016430;28;20351;-55
2022/08/04 01:11:43;;;;;;;;;;;;;;;21.17;100.00;101269.19;5043447;28;19931;-56
2022/08/04 01:14:30;;;;;;;;;;;;;;;21.12;100.00;101272.25;5053667;28;19999;-56
2022/08/04 01:17:06;;;;;;;;;;;;;;;21.08;100.00;101268.97;5044681;28;20452;-55
2022/08/04 01:19:40;;;;;;;;;;;;;;;21.06;100.00;101278.16;5033991;28;19928;-56
2022/08/04 01:22:11;;;;;;;;;;;;;;;21.03;100.00;101270.34;5045091;28;19942;-55
2022/08/04 01:24:47;;;;;;;;;;;;;;;21.00;100.00;101273.25;5053350;28;19912;-55
2022/08/04 01:27:15;;;;;;;;;;;;;;;21.03;100.00;101273.03;5044060;28;19917;-54
2022/08/04 01:29:45;;;;;;;;;;;;;;;21.02;100.00;101269.47;5033484;28;19971;-56
2022/08/04 01:32:13;;;;;;;;;;;;;;;21.04;100.00;101262.13;5049024;28;20365;-56
2022/08/04 01:34:46;;;;;;;;;;;;;;;21.03;100.00;101259.56;5053149;28;19924;-55
2022/08/04 01:37:20;;;;;;;;;;;;;;;20.99;100.00;101263.50;5047845;28;20019;-54
2022/08/04 01:39:49;;;;;;;;;;;;;;;20.91;100.00;101254.22;5052787;28;19925;-56
2022/08/04 01:42:16;;;;;;;;;;;;;;;20.86;100.00;101259.13;5052154;28;20295;-56
2022/08/04 01:44:44;;;;;;;;;;;;;;;20.84;100.00;101254.84;5052757;28;19913;-56
2022/08/04 01:47:10;;;;;;;;;;;;;;;20.84;100.00;101250.31;5051237;28;19924;-57
2022/08/04 01:49:36;;;;;;;;;;;;;;;20.85;100.00;101251.16;5033081;28;19917;-55
2022/08/04 01:52:02;;;;;;;;;;;;;;;20.83;100.00;101255.81;5033160;28;19913;-55
2022/08/04 01:54:29;;;;;;;;;;;;;;;20.79;100.00;101250.69;5032957;28;19921;-56
2022/08/04 01:56:55;;;;;;;;;;;;;;;20.77;100.00;101249.97;5033388;28;19939;-56
2022/08/04 01:59:21;;;;;;;;;;;;;;;20.75;100.00;101238.44;5049462;28;20015;-56
2022/08/04 02:01:47;;;;;;;;;;;;;;;20.73;100.00;101240.44;5052998;28;19994;-56
2022/08/04 02:04:13;;;;;;;;;;;;;;;20.72;100.00;101249.47;5052866;28;19924;-55
2022/08/04 02:06:47;;;;;;;;;;;;;;;20.74;100.00;101252.03;5052926;28;19921;-55
2022/08/04 02:09:27;;;;;;;;;;;;;;;20.74;100.00;101239.44;5033857;28;20395;-56
2022/08/04 02:12:16;;;;;;;;;;;;;;;20.70;100.00;101239.78;5052864;28;19913;-54
2022/08/04 02:14:48;;;;;;;;;;;;;;;20.69;100.00;101241.63;5023870;28;20354;-55
2022/08/04 02:17:14;;;;;;;;;;;;;;;20.67;100.00;101235.50;5052691;28;20368;-56
2022/08/04 02:19:50;;;;;;;;;;;;;;;20.65;100.00;101229.38;5050472;28;19928;-56
2022/08/04 02:22:17;;;;;;;;;;;;;;;20.62;100.00;101235.88;5052558;28;19913;-56
2022/08/04 02:24:45;;;;;;;;;;;;;;;20.65;100.00;101229.38;5052413;28;19935;-56
2022/08/04 02:27:11;;;;;;;;;;;;;;;20.69;100.00;101222.81;5051948;28;19912;-56
2022/08/04 02:29:44;;;;;;;;;;;;;;;20.71;100.00;101230.78;5049828;28;19964;-55
2022/08/04 02:32:14;;;;;;;;;;;;;;;20.73;100.00;101220.72;5051082;28;19923;-56
2022/08/04 02:34:46;;;;;;;;;;;;;;;20.73;100.00;101234.16;5052174;28;19913;-57
2022/08/04 02:37:13;;;;;;;;;;;;;;;20.70;100.00;101231.72;5034376;28;19913;-56
2022/08/04 02:39:41;;;;;;;;;;;;;;;20.66;100.00;101228.41;5049920;28;19925;-55
2022/08/04 02:42:07;;;;;;;;;;;;;;;20.68;100.00;101221.09;5052248;28;19913;-54
2022/08/04 02:44:35;;;;;;;;;;;;;;;20.65;100.00;101218.63;5051860;28;20362;-56
2022/08/04 02:47:01;;;;;;;;;;;;;;;20.67;100.00;101221.22;5052011;28;20364;-56
2022/08/04 02:49:28;;;;;;;;;;;;;;;20.67;100.00;101227.44;5051540;28;19959;-56
2022/08/04 02:51:54;;;;;;;;;;;;;;;20.70;100.00;101224.50;5049859;28;19939;-56
2022/08/04 02:54:22;;;;;;;;;;;;;;;20.72;100.00;101227.94;5034178;28;20380;-56
2022/08/04 02:56:49;;;;;;;;;;;;;;;20.67;100.00;101229.28;5034403;28;20346;-55
2022/08/04 02:59:17;;;;;;;;;;;;;;;20.64;100.00;101227.69;5052080;28;19963;-56
2022/08/04 03:01:42;;;;;;;;;;;;;;;20.58;100.00;101220.97;5030257;28;19917;-55
2022/08/04 03:04:16;;;;;;;;;;;;;;;20.56;100.00;101222.06;5051856;28;19927;-53
2022/08/04 03:06:57;;;;;;;;;;;;;;;20.56;100.00;101230.13;5051782;28;19921;-56
2022/08/04 03:10:00;;;;;;;;;;;;;;;20.56;100.00;101220.25;5051958;28;19966;-54
2022/08/04 03:12:28;;;;;;;;;;;;;;;20.54;100.00;101230.28;4989972;28;19917;-57
2022/08/04 03:14:54;;;;;;;;;;;;;;;20.54;100.00;101230.28;4974023;28;19913;-56
2022/08/04 03:17:37;;;;;;;;;;;;;;;20.53;100.00;101225.88;5019631;28;19920;-56
2022/08/04 03:20:21;;;;;;;;;;;;;;;20.50;100.00;101222.56;5051587;28;19917;-56
2022/08/04 03:23:05;;;;;;;;;;;;;;;20.45;100.00;101218.41;5049742;28;19956;-56
2022/08/04 03:25:49;;;;;;;;;;;;;;;20.39;100.00;101204.63;5051714;28;19917;-55
2022/08/04 03:28:37;;;;;;;;;;;;;;;20.36;100.00;101216.47;5051842;28;19959;-55
2022/08/04 03:31:09;;;;;;;;;;;;;;;20.37;100.00;101206.56;5049218;28;19916;-57
2022/08/04 03:33:49;;;;;;;;;;;;;;;20.36;100.00;101208.41;5026447;28;20295;-54
2022/08/04 03:36:52;;;;;;;;;;;;;;;20.36;100.00;101205.72;5033141;28;19920;-56
2022/08/04 03:39:36;;;;;;;;;;;;;;;20.34;100.00;101213.03;4973891;28;20333;-56
2022/08/04 03:42:13;;;;;;;;;;;;;;;20.31;100.00;101207.94;4989077;28;19924;-56
2022/08/04 03:44:47;;;;;;;;;;;;;;;20.29;100.00;101212.56;5020800;28;19920;-56
2022/08/04 03:47:30;;;;;;;;;;;;;;;20.30;100.00;101207.06;5035532;28;19913;-54
2022/08/04 03:50:15;;;;;;;;;;;;;;;20.30;100.00;101209.75;5035805;28;20379;-56
2022/08/04 03:55:27;;;;;;;;;;;;;;;20.29;100.00;101209.88;5054310;28;19924;-56
2022/08/04 03:58:11;;;;;;;;;;;;;;;20.28;100.00;101202.78;5054906;28;19921;-56
2022/08/04 04:00:45;;;;;;;;;;;;;;;20.29;100.00;101196.44;5055101;28;19921;-56
2022/08/04 04:03:29;;;;;;;;;;;;;;;20.32;100.00;101201.56;5036645;28;20003;-56
2022/08/04 04:06:13;;;;;;;;;;;;;;;20.34;100.00;101201.44;5054493;28;19974;-53
2022/08/04 04:09:01;;;;;;;;;;;;;;;20.34;100.00;101199.59;5037325;28;20066;-55
2022/08/04 04:11:45;;;;;;;;;;;;;;;20.33;100.00;101203.25;5055372;28;19913;-56
2022/08/04 04:14:10;;;;;;;;;;;;;;;20.32;100.00;101204.25;5053929;28;19916;-56
2022/08/04 04:16:54;;;;;;;;;;;;;;;20.31;100.00;101197.16;5054718;28;19912;-56
2022/08/04 04:19:33;;;;;;;;;;;;;;;20.30;100.00;101198.97;5054731;28;19916;-56
2022/08/04 04:22:16;;;;;;;;;;;;;;;20.29;100.00;101202.69;5055012;28;19978;-57
2022/08/04 04:24:47;;;;;;;;;;;;;;;20.29;100.00;101201.81;5052694;28;19923;-57
2022/08/04 04:27:16;;;;;;;;;;;;;;;20.27;100.00;101201.94;5053902;28;20279;-56
2022/08/04 04:29:59;;;;;;;;;;;;;;;20.28;100.00;101208.16;5054772;28;19919;-56
2022/08/04 04:32:30;;;;;;;;;;;;;;;20.31;100.00;101221.38;5054911;28;19916;-56
2022/08/04 04:34:55;;;;;;;;;;;;;;;20.35;100.00;101212.06;5041423;28;20011;-57
2022/08/04 04:37:36;;;;;;;;;;;;;;;20.34;100.00;101212.19;5051886;28;20333;-56
2022/08/04 04:40:01;;;;;;;;;;;;;;;20.35;100.00;101213.91;5052543;28;19925;-56
2022/08/04 04:42:32;;;;;;;;;;;;;;;20.32;100.00;101206.97;5053676;28;19913;-55
2022/08/04 04:45:04;;;;;;;;;;;;;;;20.32;100.00;101211.47;5030481;28;19917;-56
2022/08/04 04:47:35;;;;;;;;;;;;;;;20.32;100.00;101211.47;5053905;28;19947;-57
2022/08/04 04:50:00;;;;;;;;;;;;;;;20.36;100.00;101213.78;5053437;28;19916;-56
2022/08/04 04:52:29;;;;;;;;;;;;;;;20.39;100.00;101210.84;5054419;28;19920;-53
2022/08/04 04:55:13;;;;;;;;;;;;;;;20.41;100.00;101208.03;5031931;28;19924;-55
2022/08/04 04:57:40;;;;;;;;;;;;;;;20.43;100.00;101211.44;5053953;28;19925;-55
2022/08/04 05:00:11;;;;;;;;;;;;;;;20.45;100.00;101212.19;5053821;28;19920;-55
2022/08/04 05:02:48;;;;;;;;;;;;;;;20.44;100.00;101208.63;5054109;28;20455;-55
2022/08/04 05:05:19;;;;;;;;;;;;;;;20.45;100.00;101204.97;5045120;28;19916;-56
2022/08/04 05:07:56;;;;;;;;;;;;;;;20.51;100.00;101219.78;5033682;28;19928;-53
2022/08/04 05:10:30;;;;;;;;;;;;;;;20.61;100.00;101219.84;5034056;28;19960;-55
2022/08/04 05:12:55;;;;;;;;;;;;;;;20.63;100.00;101239.44;5045780;28;20369;-56
2022/08/04 05:15:23;;;;;;;;;;;;;;;20.65;100.00;101226.69;5053664;28;19920;-54
2022/08/04 05:17:51;;;;;;;;;;;;;;;20.66;100.00;101228.41;5053388;28;19927;-57
2022/08/04 05:20:21;;;;;;;;;;;;;;;20.68;100.00;101223.78;5053578;28;20276;-55
2022/08/04 05:22:57;;;;;;;;;;;;;;;20.67;100.00;101219.38;5051220;28;19924;-55
2022/08/04 05:25:29;;;;;;;;;;;;;;;20.67;100.00;101223.91;5052037;28;19924;-56
2022/08/04 05:27:54;;;;;;;;;;;;;;;20.67;100.00;101230.13;5053637;28;19913;-56
2022/08/04 05:30:21;;;;;;;;;;;;;;;20.66;100.00;101232.94;5034246;28;19961;-55
2022/08/04 05:32:49;;;;;;;;;;;;;;;20.67;100.00;101237.34;5047636;28;19922;-53
2022/08/04 05:35:18;;;;;;;;;;;;;;;20.67;100.00;101240.91;5045916;28;19920;-55
2022/08/04 05:37:47;;;;;;;;;;;;;;;20.69;100.00;101246.13;5052639;28;19923;-55
2022/08/04 05:40:13;;;;;;;;;;;;;;;20.71;100.00;101245.06;5053139;28;19921;-56
2022/08/04 05:42:39;;;;;;;;;;;;;;;20.72;100.00;101249.47;5052168;28;19971;-55
2022/08/04 05:45:06;;;;;;;;;;;;;;;20.73;100.00;101245.81;5029714;28;20008;-54
2022/08/04 05:47:32;;;;;;;;;;;;;;;20.76;100.00;101242.00;5033117;28;19913;-56
2022/08/04 05:49:57;;;;;;;;;;;;;;;20.74;100.00;101236.75;5049304;28;19920;-55
2022/08/04 05:52:23;;;;;;;;;;;;;;;20.71;100.00;101238.84;5052991;28;20306;-54
2022/08/04 05:54:50;;;;;;;;;;;;;;;20.71;100.00;101246.91;5047059;28;19925;-56
2022/08/04 05:57:15;;;;;;;;;;;;;;;20.69;100.00;101238.06;5052727;28;19974;-56
2022/08/04 05:59:45;;;;;;;;;;;;;;;20.70;100.00;101231.72;5053071;28;19917;-56
2022/08/04 06:02:11;;;;;;;;;;;;;;;20.71;100.00;101234.31;5052624;28;20370;-56
2022/08/04 06:04:38;;;;;;;;;;;;;;;20.74;100.00;101230.50;5050463;28;19916;-56
2022/08/04 06:07:04;;;;;;;;;;;;;;;20.77;100.00;101241.88;5052103;28;19920;-52
2022/08/04 06:09:30;;;;;;;;;;;;;;;20.84;100.00;101244.06;5052937;28;19920;-56
2022/08/04 06:11:58;;;;;;;;;;;;;;;20.86;100.00;101239.44;5051193;28;19923;-56
2022/08/04 06:14:24;;;;;;;;;;;;;;;20.98;100.00;101240.25;5023908;28;19956;-56
2022/08/04 06:16:52;;;;;;;;;;;;;;;21.01;100.00;101235.47;5033743;28;20379;-56
2022/08/04 06:19:19;;;;;;;;;;;;;;;21.07;100.00;101251.09;5051799;28;19943;-56
2022/08/04 06:21:47;;;;;;;;;;;;;;;21.17;100.00;101245.81;5047833;28;19924;-56
2022/08/04 06:24:14;;;;;;;;;;;;;;;21.26;100.00;101253.09;5046130;28;20304;-57
2022/08/04 06:26:41;;;;;;;;;;;;;;;21.35;100.00;101254.16;5048455;28;19927;-55
2022/08/04 06:29:16;;;;;;;;;;;;;;;21.43;100.00;101249.00;5049852;28;19970;-55
2022/08/04 06:31:45;;;;;;;;;;;;;;;21.55;100.00;101254.38;5048196;28;20026;-56
2022/08/04 06:34:12;;;;;;;;;;;;;;;21.61;100.00;101248.44;5048664;28;19928;-56
2022/08/04 06:36:39;;;;;;;;;;;;;;;21.72;100.00;101248.38;5049838;28;20422;-57
2022/08/04 06:39:05;;;;;;;;;;;;;;;21.77;100.00;101246.13;5050597;28;19975;-52
2022/08/04 06:41:31;;;;;;;;;;;;;;;21.81;100.00;101251.28;5048629;28;19925;-54
2022/08/04 06:44:06;;;;;;;;;;;;;;;21.91;100.00;101254.91;5034162;28;20335;-53
2022/08/04 06:46:33;;;;;;;;;;;;;;;21.94;100.00;101257.31;5050351;28;19923;-46
2022/08/04 06:48:58;;;;;;;;;;;;;;;21.96;100.00;101263.44;5051202;28;19952;-49
2022/08/04 06:51:24;;;;;;;;;;;;;;;22.10;100.00;101259.53;5034364;28;19947;-51
2022/08/04 06:53:49;;;;;;;;;;;;;;;22.09;100.00;101263.22;5049798;28;19921;-55
2022/08/04 06:56:16;;;;;;;;;;;;;;;22.05;100.00;101262.63;5045062;28;19917;-56
2022/08/04 06:58:42;;;;;;;;;;;;;;;22.09;100.00;101268.63;5046913;28;19925;-56
2022/08/04 07:01:08;;;;;;;;;;;;;;;22.12;100.00;101260.25;5051982;28;19912;-56
2022/08/04 07:03:33;;;;;;;;;;;;;;;22.11;100.00;101261.25;5051011;28;19974;-55
2022/08/04 07:05:59;;;;;;;;;;;;;;;22.22;100.00;101274.63;5033301;28;19929;-55
2022/08/04 07:08:25;;;;;;;;;;;;;;;22.21;100.00;101275.66;5048776;28;20384;-55
2022/08/04 07:10:52;;;;;;;;;;;;;;;22.48;100.00;101276.94;5051612;28;19913;-56
2022/08/04 07:13:18;;;;;;;;;;;;;;;22.65;100.00;101267.31;5048349;28;19921;-56
2022/08/04 07:15:44;;;;;;;;;;;;;;;22.68;100.00;101275.13;5049518;28;19943;-56
2022/08/04 07:18:10;;;;;;;;;;;;;;;22.70;100.00;101272.31;5051535;28;20310;-53
2022/08/04 07:20:38;;;;;;;;;;;;;;;22.77;100.00;101278.00;5054950;28;19932;-56
2022/08/04 07:23:04;;;;;;;;;;;;;;;22.70;100.00;101288.53;5057570;28;19998;-56
2022/08/04 07:25:29;;;;;;;;;;;;;;;22.74;100.00;101298.88;5039599;28;19948;-55
2022/08/04 07:27:54;;;;;;;;;;;;;;;22.60;100.00;101299.28;5056853;28;19923;-56
2022/08/04 07:30:21;;;;;;;;;;;;;;;22.65;100.00;101298.84;5056882;28;19925;-56
2022/08/04 07:32:47;;;;;;;;;;;;;;;22.63;100.00;101309.78;5057937;28;20391;-55
2022/08/04 07:35:12;;;;;;;;;;;;;;;22.63;100.00;101309.78;5057856;28;19917;-56
2022/08/04 07:37:38;;;;;;;;;;;;;;;22.80;100.00;101307.44;5056889;28;19932;-55
2022/08/04 07:40:04;;;;;;;;;;;;;;;22.70;100.00;101304.72;5035934;28;19955;-57
2022/08/04 07:42:29;;;;;;;;;;;;;;;22.71;100.00;101306.41;5055114;28;19928;-54
2022/08/04 07:44:54;;;;;;;;;;;;;;;22.71;97.65;101312.66;5058546;28;19948;-53
2022/08/04 07:47:20;;;;;;;;;;;;;;;22.46;99.31;101308.59;5057285;28;19921;-55
2022/08/04 07:49:45;;;;;;;;;;;;;;;22.55;99.71;101306.94;5055073;28;19927;-55
2022/08/04 07:52:10;;;;;;;;;;;;;;;22.74;98.86;101306.16;5057005;28;20299;-53
2022/08/04 07:54:37;;;;;;;;;;;;;;;22.86;96.53;101312.28;5039777;28;20323;-56
2022/08/04 07:57:02;;;;;;;;;;;;;;;22.97;96.60;101324.81;5038737;28;19921;-56
2022/08/04 07:59:27;;;;;;;;;;;;;;;23.10;95.96;101320.00;5056511;28;19920;-53
2022/08/04 08:01:53;;;;;;;;;;;;;;;23.15;94.90;101316.94;5057472;28;19985;-55
2022/08/04 08:04:19;;;;;;;;;;;;;;;23.08;95.88;101328.25;5039309;28;20402;-56
2022/08/04 08:06:45;;;;;;;;;;;;;;;23.08;97.27;101324.69;5057822;28;19920;-56
2022/08/04 08:09:11;;;;;;;;;;;;;;;23.26;97.08;101322.19;5056578;28;19977;-56
2022/08/04 08:11:37;;;;;;;;;;;;;;;23.32;94.97;101324.34;5027843;28;19966;-56
2022/08/04 08:14:02;;;;;;;;;;;;;;;23.17;94.80;101320.34;5054197;28;19917;-55
2022/08/04 08:16:27;;;;;;;;;;;;;;;23.39;94.47;101317.38;5053792;28;20320;-55
2022/08/04 08:18:54;;;;;;;;;;;;;;;23.52;92.68;101327.06;5053806;28;19968;-56
2022/08/04 08:21:19;;;;;;;;;;;;;;;23.69;91.95;101325.50;5046106;28;19939;-56
2022/08/04 08:23:45;;;;;;;;;;;;;;;23.84;91.55;101324.06;5057585;28;19923;-55
2022/08/04 08:26:10;;;;;;;;;;;;;;;24.12;88.31;101328.72;5039790;28;19993;-54
2022/08/04 08:28:35;;;;;;;;;;;;;;;24.44;88.59;101322.09;5055790;28;20364;-54
2022/08/04 08:31:01;;;;;;;;;;;;;;;24.53;85.40;101318.50;5053565;28;19924;-54
2022/08/04 08:33:26;;;;;;;;;;;;;;;24.85;84.78;101317.25;5051888;28;19928;-55
2022/08/04 08:36:02;;;;;;;;;;;;;;;25.03;82.30;101315.41;5053470;28;19939;-54
2022/08/04 08:38:39;;;;;;;;;;;;;;;25.12;79.82;101310.09;5035028;28;19959;-55
2022/08/04 08:41:04;;;;;;;;;;;;;;;24.98;77.00;101327.72;5049873;28;19992;-54
2022/08/04 08:43:53;;;;;;;;;;;;;;;24.97;76.07;101316.03;5053278;28;20000;-53
2022/08/04 08:46:24;;;;;;;;;;;;;;;25.14;76.15;101321.63;5030725;28;20274;-55
2022/08/04 08:48:49;;;;;;;;;;;;;;;25.32;73.93;101322.50;5031529;28;19916;-56
2022/08/04 08:51:27;;;;;;;;;;;;;;;25.52;75.46;101331.38;5054075;28;19913;-55
2022/08/04 08:53:55;;;;;;;;;;;;;;;25.70;73.24;101332.38;5049210;28;19921;-56
2022/08/04 08:56:20;;;;;;;;;;;;;;;26.53;68.99;101331.94;5051992;28;19920;-56
2022/08/04 08:59:04;;;;;;;;;;;;;;;27.29;65.09;101329.34;5045832;28;19947;-55
2022/08/04 09:01:49;;;;;;;;;;;;;;;27.79;59.48;101333.00;5050798;28;20393;-57
2022/08/04 09:04:20;;;;;;;;;;;;;;;27.58;58.58;101328.06;5053041;28;19935;-56
2022/08/04 09:06:52;;;;;;;;;;;;;;;27.11;58.66;101335.78;5031481;28;19966;-55
2022/08/04 09:09:28;;;;;;;;;;;;;;;27.19;57.74;101334.06;5052550;28;19967;-56
2022/08/04 09:12:12;;;;;;;;;;;;;;;28.24;53.45;101345.22;5035575;28;19971;-51
2022/08/04 09:14:51;;;;;;;;;;;;;;;28.82;50.00;101333.31;5035613;28;20299;-53
2022/08/04 09:17:34;;;;;;;;;;;;;;;28.29;51.02;101341.97;5049288;28;19917;-58
2022/08/04 09:20:02;;;;;;;;;;;;;;;27.41;53.75;101347.06;5052548;28;19925;-57
2022/08/04 09:22:32;;;;;;;;;;;;;;;26.88;55.14;101342.81;5053646;28;19949;-56
2022/08/04 09:25:03;;;;;;;;;;;;;;;26.56;57.17;101347.06;5052632;28;19917;-56
2022/08/04 09:27:47;;;;;;;;;;;;;;;26.21;58.26;101354.34;5050194;28;19917;-56
2022/08/04 09:30:16;;;;;;;;;;;;;;;26.14;60.65;101354.97;5052783;28;19956;-57
2022/08/04 09:32:46;;;;;;;;;;;;;;;26.15;59.72;101353.97;5049677;28;19920;-56
2022/08/04 09:35:14;;;;;;;;;;;;;;;25.90;60.14;101361.03;5045823;28;20372;-56
2022/08/04 09:37:42;;;;;;;;;;;;;;;25.79;60.58;101372.09;5053220;28;20375;-60
2022/08/04 09:40:13;;;;;;;;;;;;;;;25.51;62.29;101367.63;5051506;28;19927;-56
2022/08/04 09:42:57;;;;;;;;;;;;;;;25.72;62.37;101380.03;5052779;28;19917;-56
2022/08/04 09:45:22;;;;;;;;;;;;;;;25.91;62.87;101381.72;5048483;28;20304;-54
2022/08/04 09:47:59;;;;;;;;;;;;;;;26.06;58.18;101378.47;5048222;28;19996;-56
2022/08/04 09:50:24;;;;;;;;;;;;;;;25.86;58.56;101381.34;5046768;28;19956;-57
2022/08/04 09:52:56;;;;;;;;;;;;;;;25.68;62.24;101373.22;5052901;28;20365;-56
2022/08/04 09:55:45;;;;;;;;;;;;;;;25.71;62.84;101377.47;5039542;28;20368;-56
2022/08/04 09:58:21;;;;;;;;;;;;;;;25.77;61.52;101383.13;5032821;28;19974;-57
2022/08/04 10:00:48;;;;;;;;;;;;;;;26.04;58.44;101381.31;5052952;28;19921;-57
2022/08/04 10:03:15;;;;;;;;;;;;;;;26.00;62.18;101388.06;5052582;28;19912;-56
2022/08/04 10:05:40;;;;;;;;;;;;;;;26.11;56.15;101395.13;5052085;28;19982;-55
2022/08/04 10:08:12;;;;;;;;;;;;;;;26.14;55.82;101401.09;5034156;28;20372;-56
2022/08/04 10:10:43;;;;;;;;;;;;;;;26.20;55.69;101394.19;5052574;28;19913;-56
2022/08/04 10:13:18;;;;;;;;;;;;;;;26.30;53.68;101389.50;5052225;28;20289;-57
2022/08/04 10:15:43;;;;;;;;;;;;;;;26.61;53.82;101391.75;5034438;28;19913;-55
2022/08/04 10:18:35;;;;;;;;;;;;;;;26.62;57.30;101396.16;5051813;28;19919;-55
2022/08/04 10:21:03;;;;;;;;;;;;;;;26.59;52.92;101406.50;5020360;28;20008;-59
2022/08/04 10:23:34;;;;;;;;;;;;;;;26.82;52.34;101404.13;5052365;28;19962;-57
2022/08/04 10:26:18;;;;;;;;;;;;;;;26.72;52.28;101412.34;5038988;28;19944;-57
2022/08/04 10:28:48;;;;;;;;;;;;;;;26.72;50.52;101409.63;5051742;28;19920;-56
2022/08/04 10:31:18;;;;;;;;;;;;;;;26.30;50.22;101407.66;5052250;28;20332;-57
2022/08/04 10:34:02;;;;;;;;;;;;;;;26.08;49.96;101409.88;5051259;28;19920;-57
2022/08/04 10:36:29;;;;;;;;;;;;;;;26.30;50.55;101415.81;5051865;28;19962;-57
2022/08/04 10:39:04;;;;;;;;;;;;;;;26.36;51.03;101422.44;5041592;28;19921;-57
2022/08/04 10:41:29;;;;;;;;;;;;;;;26.24;50.57;101408.28;5049346;28;20388;-56
2022/08/04 10:44:04;;;;;;;;;;;;;;;26.55;51.21;101416.84;5037987;28;19923;-58
2022/08/04 10:46:31;;;;;;;;;;;;;;;27.18;49.62;101409.34;5049641;28;20388;-57
2022/08/04 10:48:58;;;;;;;;;;;;;;;27.92;52.23;101416.84;5043746;28;19928;-58
2022/08/04 10:51:42;;;;;;;;;;;;;;;28.25;48.31;101427.75;5047874;28;19927;-50
2022/08/04 10:54:10;;;;;;;;;;;;;;;28.45;46.46;101420.94;5042434;28;19913;-57
2022/08/04 10:56:40;;;;;;;;;;;;;;;28.49;47.41;101409.69;5051328;28;19923;-58
2022/08/04 10:59:26;;;;;;;;;;;;;;;29.76;44.19;101415.13;5050856;28;19920;-57
2022/08/04 11:01:53;;;;;;;;;;;;;;;30.12;42.09;101405.47;5033570;28;19913;-53
2022/08/04 11:04:26;;;;;;;;;;;;;;;30.70;40.83;101406.59;5049510;28;20238;-57
2022/08/04 11:06:51;;;;;;;;;;;;;;;31.12;39.78;101412.44;5012731;28;20370;-58
2022/08/04 11:09:17;;;;;;;;;;;;;;;31.25;39.45;101410.94;5044507;28;19920;-58
2022/08/04 11:11:45;;;;;;;;;;;;;;;31.36;38.74;101394.00;5047305;28;19921;-58
2022/08/04 11:14:12;;;;;;;;;;;;;;;31.73;37.32;101396.72;5047841;28;19917;-59
2022/08/04 11:16:47;;;;;;;;;;;;;;;31.09;38.50;101399.16;5037013;28;19924;-58
2022/08/04 11:19:27;;;;;;;;;;;;;;;30.73;39.80;101403.50;5047121;28;19925;-58
2022/08/04 11:22:03;;;;;;;;;;;;;;;31.49;41.01;101407.00;5032404;28;19921;-58
2022/08/04 11:24:47;;;;;;;;;;;;;;;31.76;37.67;101410.88;5045800;28;20300;-58
2022/08/04 11:27:22;;;;;;;;;;;;;;;31.56;37.78;101401.59;5048893;28;19924;-57
2022/08/04 11:29:51;;;;;;;;;;;;;;;30.99;38.97;101418.56;5048822;28;20354;-59
2022/08/04 11:32:18;;;;;;;;;;;;;;;30.81;40.40;101409.94;5045257;28;19955;-58
2022/08/04 11:34:46;;;;;;;;;;;;;;;31.01;38.60;101415.63;5027378;28;19917;-57
2022/08/04 11:37:17;;;;;;;;;;;;;;;31.47;37.76;101417.28;5047826;28;19917;-56
2022/08/04 11:39:51;;;;;;;;;;;;;;;31.47;38.68;101417.28;5032239;28;19967;-57
2022/08/04 11:42:22;;;;;;;;;;;;;;;31.63;37.83;101414.31;5046522;28;19925;-58
2022/08/04 11:44:47;;;;;;;;;;;;;;;31.58;36.88;101419.50;5042699;28;19913;-58
2022/08/04 11:47:31;;;;;;;;;;;;;;;31.41;37.51;101418.03;5051414;28;20364;-57
2022/08/04 11:50:03;;;;;;;;;;;;;;;31.34;38.26;101417.97;5037960;28;19919;-58
2022/08/04 11:52:29;;;;;;;;;;;;;;;31.18;37.60;101425.38;5050506;28;19924;-58
2022/08/04 11:54:56;;;;;;;;;;;;;;;30.54;39.12;101420.47;5047647;28;19925;-58
2022/08/04 11:57:22;;;;;;;;;;;;;;;30.95;38.11;101427.34;5032977;28;19920;-58
2022/08/04 11:59:48;;;;;;;;;;;;;;;31.15;37.50;101419.44;5047357;28;20431;-58
2022/08/04 12:02:32;;;;;;;;;;;;;;;30.94;38.07;101433.88;5043374;28;19943;-58
2022/08/04 12:05:01;;;;;;;;;;;;;;;31.26;37.45;101421.69;5034361;28;19917;-58
2022/08/04 12:07:26;;;;;;;;;;;;;;;31.15;37.44;101428.50;5047663;28;19996;-59
2022/08/04 12:09:52;;;;;;;;;;;;;;;31.30;37.00;101420.25;5048962;28;19973;-58
2022/08/04 12:12:26;;;;;;;;;;;;;;;31.14;37.27;101431.41;5032314;28;19917;-58
2022/08/04 12:14:58;;;;;;;;;;;;;;;30.78;37.70;101438.50;5051883;28;20386;-59
2022/08/04 12:17:34;;;;;;;;;;;;;;;30.35;38.49;101430.88;5050266;28;20320;-59
2022/08/04 12:20:05;;;;;;;;;;;;;;;30.66;38.32;101440.81;5045770;28;19921;-58
2022/08/04 12:22:33;;;;;;;;;;;;;;;30.08;39.63;101440.50;5053873;28;19921;-58
2022/08/04 12:25:06;;;;;;;;;;;;;;;30.60;38.40;101444.31;5029325;28;19917;-59
2022/08/04 12:27:45;;;;;;;;;;;;;;;30.56;38.46;101456.66;5051925;28;19917;-59
2022/08/04 12:30:11;;;;;;;;;;;;;;;30.75;38.32;101454.41;5047809;28;19961;-58
2022/08/04 12:32:47;;;;;;;;;;;;;;;31.09;37.89;101459.34;5048766;28;20395;-59
2022/08/04 12:35:18;;;;;;;;;;;;;;;31.68;37.43;101450.19;5059382;28;19913;-59
2022/08/04 12:37:49;;;;;;;;;;;;;;;31.49;36.87;101457.09;5043595;28;19928;-58
2022/08/04 12:40:17;;;;;;;;;;;;;;;31.31;35.67;101448.47;5048602;28;20435;-58
2022/08/04 12:42:57;;;;;;;;;;;;;;;30.85;36.95;101455.81;5052664;28;19916;-58
2022/08/04 12:45:22;;;;;;;;;;;;;;;30.42;37.98;101449.25;5045631;28;20010;-57
2022/08/04 12:47:49;;;;;;;;;;;;;;;30.56;37.69;101462.97;5042631;28;20121;-57
2022/08/04 12:50:15;;;;;;;;;;;;;;;30.13;38.61;101453.59;5046172;28;19992;-56
2022/08/04 12:52:43;;;;;;;;;;;;;;;30.43;38.22;101454.53;5045409;28;19921;-58